createdAt,value
2018-08-04T10:13:12.492Z,65.90
2018-08-04T10:15:40.358Z,62.10
2018-08-04T10:18:07.912Z,61.20
2018-08-04T10:20:35.436Z,60.70
2018-08-04T10:23:03.028Z,60.20
2018-08-04T10:25:30.556Z,59.70
2018-08-04T10:27:58.144Z,59.50
2018-08-04T10:30:25.753Z,60.90
2018-08-04T10:32:53.297Z,61.80
2018-08-04T10:35:20.818Z,62.40
2018-08-04T10:37:48.368Z,62.70
2018-08-04T10:40:15.930Z,62.80
2018-08-04T10:42:43.562Z,62.90
2018-08-04T10:45:12.341Z,63.00
2018-08-04T10:47:39.884Z,63.00
2018-08-04T10:50:07.420Z,63.10
2018-08-04T10:52:34.972Z,63.70
2018-08-04T10:55:02.492Z,63.10
2018-08-04T10:57:30.096Z,63.20
2018-08-04T10:59:57.671Z,63.20
2018-08-04T11:02:25.222Z,63.30
2018-08-04T11:04:52.773Z,62.80
2018-08-04T11:07:20.296Z,63.30
2018-08-04T11:09:47.816Z,63.60
2018-08-04T11:12:15.432Z,63.50
2018-08-04T11:14:42.972Z,63.70
2018-08-04T11:17:11.460Z,63.70
2018-08-04T11:19:38.988Z,63.70
2018-08-04T11:22:07.291Z,63.80
2018-08-04T11:24:34.889Z,63.50
2018-08-04T11:27:02.419Z,63.50
2018-08-04T11:29:29.944Z,63.60
2018-08-04T11:31:57.518Z,63.40
2018-08-04T11:34:25.195Z,63.30
2018-08-04T11:36:52.716Z,63.20
2018-08-04T11:39:20.237Z,63.20
2018-08-04T11:41:47.755Z,63.30
2018-08-04T11:44:15.313Z,63.20
2018-08-04T11:46:42.840Z,63.10
2018-08-04T11:49:10.415Z,63.10
2018-08-04T11:51:38.005Z,63.00
2018-08-04T11:54:05.640Z,62.90
2018-08-04T11:56:33.198Z,62.90
2018-08-04T11:59:00.838Z,62.90
2018-08-04T12:01:28.356Z,62.80
2018-08-04T12:03:55.871Z,62.90
2018-08-04T12:06:23.460Z,62.80
2018-08-04T12:08:51.020Z,62.80
2018-08-04T12:11:18.617Z,62.70
2018-08-04T12:13:46.141Z,62.80
2018-08-04T12:16:13.679Z,62.80
2018-08-04T12:18:41.235Z,62.70
2018-08-04T12:21:08.800Z,62.70
2018-08-04T12:23:36.406Z,62.70
2018-08-04T12:26:04.128Z,62.70
2018-08-04T12:28:31.695Z,63.40
2018-08-04T12:30:59.223Z,62.80
2018-08-04T12:33:26.828Z,63.20
2018-08-04T12:35:54.384Z,62.80
2018-08-04T12:38:22.052Z,63.10
2018-08-04T12:40:49.592Z,62.90
2018-08-04T12:43:17.112Z,62.80
2018-08-04T12:45:44.650Z,62.80
2018-08-04T12:48:12.184Z,62.40
2018-08-04T12:50:39.754Z,62.00
2018-08-04T12:53:07.264Z,62.10
2018-08-04T12:55:34.797Z,62.10
2018-08-04T12:58:02.328Z,61.80
2018-08-04T13:00:29.872Z,61.80
2018-08-04T13:02:57.395Z,61.80
2018-08-04T13:05:24.929Z,61.50
2018-08-04T13:07:52.460Z,61.50
2018-08-04T13:10:19.996Z,61.80
2018-08-04T13:12:47.538Z,60.80
2018-08-04T13:15:15.085Z,60.90
2018-08-04T13:17:42.612Z,60.90
2018-08-04T13:20:10.157Z,61.00
2018-08-04T13:22:37.680Z,61.00
2018-08-04T13:25:05.236Z,60.80
2018-08-04T13:27:33.004Z,60.10
2018-08-04T13:30:00.789Z,59.70
2018-08-04T13:32:28.523Z,59.60
2018-08-04T13:34:56.047Z,59.40
2018-08-04T13:37:23.585Z,59.30
2018-08-04T13:39:51.113Z,59.10
2018-08-04T13:42:18.649Z,59.20
2018-08-04T13:44:46.185Z,59.10
2018-08-04T13:47:13.731Z,59.00
2018-08-04T13:49:41.261Z,59.00
2018-08-04T13:52:08.796Z,58.30
2018-08-04T13:54:36.464Z,58.10
2018-08-04T13:57:03.996Z,58.10
2018-08-04T13:59:31.543Z,58.40
2018-08-04T14:01:59.064Z,58.40
2018-08-04T14:04:26.596Z,58.50
2018-08-04T14:06:54.147Z,58.20
2018-08-04T14:09:21.696Z,58.20
2018-08-04T14:11:49.220Z,58.00
2018-08-04T14:14:16.747Z,57.90
2018-08-04T14:16:44.280Z,57.40
2018-08-04T14:19:11.811Z,57.60
2018-08-04T14:21:39.348Z,57.50
2018-08-04T14:24:06.888Z,57.30
2018-08-04T14:26:34.464Z,57.10
2018-08-04T14:29:04.141Z,57.20
2018-08-04T14:31:31.705Z,56.90
2018-08-04T14:33:59.231Z,56.70
2018-08-04T14:36:26.800Z,57.10
2018-08-04T14:38:54.329Z,56.50
2018-08-04T14:41:21.880Z,56.50
2018-08-04T14:43:49.397Z,56.50
2018-08-04T14:46:17.120Z,56.80
2018-08-04T14:48:44.683Z,56.50
2018-08-04T14:51:12.232Z,56.40
2018-08-04T14:53:39.758Z,55.90
2018-08-04T14:56:07.336Z,56.00
2018-08-04T14:58:34.856Z,55.90
2018-08-04T15:01:02.433Z,55.70
2018-08-04T15:03:29.973Z,55.60
2018-08-04T15:05:57.536Z,55.50
2018-08-04T15:08:25.067Z,55.40
2018-08-04T15:10:52.638Z,55.80
2018-08-04T15:13:20.160Z,55.80
2018-08-04T15:15:47.964Z,55.20
2018-08-04T15:18:15.452Z,55.10
2018-08-04T15:20:43.010Z,55.20
2018-08-04T15:23:10.524Z,55.30
2018-08-04T15:25:38.079Z,55.00
2018-08-04T15:28:05.655Z,55.00
2018-08-04T15:30:33.224Z,54.40
2018-08-04T15:33:01.279Z,54.40
2018-08-04T15:35:29.084Z,55.00
2018-08-04T15:37:56.631Z,55.00
2018-08-04T15:40:24.180Z,54.40
2018-08-04T15:42:51.719Z,54.40
2018-08-04T15:45:19.236Z,54.40
2018-08-04T15:47:46.760Z,54.40
2018-08-04T15:50:14.300Z,54.50
2018-08-04T15:52:41.829Z,54.50
2018-08-04T15:55:09.356Z,54.20
2018-08-04T15:57:37.044Z,54.30
2018-08-04T16:00:05.257Z,54.30
2018-08-04T16:02:32.803Z,54.50
2018-08-04T16:05:00.384Z,54.10
2018-08-04T16:07:27.935Z,53.60
2018-08-04T16:09:56.047Z,54.20
2018-08-04T16:12:23.598Z,53.70
2018-08-04T16:14:51.134Z,53.90
2018-08-04T16:17:18.850Z,53.50
2018-08-04T16:19:46.376Z,53.40
2018-08-04T16:22:13.925Z,54.10
2018-08-04T16:24:41.457Z,54.20
2018-08-04T16:27:09.020Z,54.30
2018-08-04T16:29:36.573Z,54.20
2018-08-04T16:32:04.232Z,54.00
2018-08-04T16:34:31.798Z,54.20
2018-08-04T16:36:59.352Z,54.10
2018-08-04T16:39:26.900Z,54.20
2018-08-04T16:41:54.502Z,54.20
2018-08-04T16:44:22.029Z,54.00
2018-08-04T16:46:49.568Z,53.80
2018-08-04T16:49:17.096Z,54.00
2018-08-04T16:51:44.643Z,53.80
2018-08-04T16:54:12.192Z,53.60
2018-08-04T16:56:39.720Z,54.00
2018-08-04T16:59:07.261Z,53.90
2018-08-04T17:01:34.788Z,53.40
2018-08-04T17:04:02.328Z,53.90
2018-08-04T17:06:29.879Z,54.40
2018-08-04T17:08:57.399Z,53.90
2018-08-04T17:11:25.047Z,54.00
2018-08-04T17:13:52.793Z,53.80
2018-08-04T17:16:20.344Z,53.70
2018-08-04T17:18:47.868Z,53.20
2018-08-04T17:21:15.384Z,53.80
2018-08-04T17:23:42.908Z,53.50
2018-08-04T17:26:10.437Z,53.10
2018-08-04T17:28:38.000Z,53.50
2018-08-04T17:31:05.533Z,53.30
2018-08-04T17:33:33.074Z,53.30
2018-08-04T17:36:00.619Z,52.80
2018-08-04T17:38:28.164Z,53.00
2018-08-04T17:40:55.690Z,52.50
2018-08-04T17:43:23.224Z,53.20
2018-08-04T17:45:50.747Z,53.30
2018-08-04T17:48:18.313Z,53.40
2018-08-04T17:50:45.836Z,53.60
2018-08-04T17:53:13.381Z,53.30
2018-08-04T17:55:40.920Z,53.40
2018-08-04T17:58:08.463Z,53.40
2018-08-04T18:00:36.011Z,53.60
2018-08-04T18:03:03.568Z,54.00
2018-08-04T18:05:31.081Z,53.90
2018-08-04T18:07:58.633Z,53.70
2018-08-04T18:10:26.167Z,53.80
2018-08-04T18:12:53.716Z,53.80
2018-08-04T18:15:21.267Z,54.20
2018-08-04T18:17:48.899Z,54.20
2018-08-04T18:20:16.436Z,54.20
2018-08-04T18:22:44.151Z,54.30
2018-08-04T18:25:11.685Z,54.40
2018-08-04T18:27:39.211Z,54.40
2018-08-04T18:30:06.838Z,54.40
2018-08-04T18:32:34.309Z,54.40
2018-08-04T18:35:01.841Z,54.60
2018-08-04T18:37:29.729Z,54.70
2018-08-04T18:39:57.262Z,55.40
2018-08-04T18:42:24.780Z,54.50
2018-08-04T18:44:52.308Z,54.20
2018-08-04T18:47:19.835Z,54.40
2018-08-04T18:49:47.356Z,54.20
2018-08-04T18:52:14.876Z,53.80
2018-08-04T18:54:42.403Z,53.80
2018-08-04T18:57:09.932Z,53.80
2018-08-04T18:59:37.463Z,53.10
2018-08-04T19:02:04.984Z,53.30
2018-08-04T19:04:32.509Z,53.40
2018-08-04T19:07:00.032Z,53.20
2018-08-04T19:09:27.552Z,52.70
2018-08-04T19:11:55.073Z,53.10
2018-08-04T19:14:22.604Z,53.20
2018-08-04T19:16:50.120Z,53.30
2018-08-04T19:19:17.637Z,52.80
2018-08-04T19:21:45.161Z,53.40
2018-08-04T19:24:12.686Z,53.20
2018-08-04T19:26:40.468Z,54.00
2018-08-04T19:29:07.993Z,53.50
2018-08-04T19:31:35.520Z,53.40
2018-08-04T19:34:03.119Z,53.10
2018-08-04T19:36:30.649Z,52.90
2018-08-04T19:38:58.192Z,53.20
2018-08-04T19:41:27.815Z,52.40
2018-08-04T19:43:55.458Z,53.10
2018-08-04T19:46:22.952Z,53.10
2018-08-04T19:48:50.614Z,53.00
2018-08-04T19:51:18.159Z,52.80
2018-08-04T19:53:45.720Z,53.00
2018-08-04T19:56:13.277Z,53.20
2018-08-04T19:58:40.823Z,52.60
2018-08-04T20:01:08.390Z,52.40
2018-08-04T20:03:35.952Z,52.50
2018-08-04T20:06:03.474Z,52.90
2018-08-04T20:08:31.245Z,52.30
2018-08-04T20:10:58.835Z,52.60
2018-08-04T20:13:26.359Z,52.50
2018-08-04T20:15:53.892Z,52.00
2018-08-04T20:18:21.424Z,53.00
2018-08-04T20:20:48.955Z,53.20
2018-08-04T20:23:16.490Z,53.80
2018-08-04T20:25:44.003Z,53.50
2018-08-04T20:28:11.527Z,53.00
2018-08-04T20:30:39.068Z,53.70
2018-08-04T20:33:06.596Z,53.70
2018-08-04T20:35:34.128Z,53.70
2018-08-04T20:38:01.657Z,54.60
2018-08-04T20:40:29.237Z,53.70
2018-08-04T20:42:56.828Z,53.60
2018-08-04T20:45:24.376Z,53.00
2018-08-04T20:47:51.912Z,51.60
2018-08-04T20:50:19.455Z,51.60
2018-08-04T20:52:46.992Z,51.60
2018-08-04T20:55:14.567Z,50.80
2018-08-04T20:57:42.093Z,50.70
2018-08-04T21:00:09.636Z,50.00
2018-08-04T21:02:37.181Z,49.70
2018-08-04T21:05:04.728Z,48.60
2018-08-04T21:07:32.254Z,48.50
2018-08-04T21:09:59.803Z,47.80
2018-08-04T21:12:27.336Z,47.50
2018-08-04T21:14:54.895Z,47.60
2018-08-04T21:17:22.428Z,47.20
2018-08-04T21:19:49.963Z,47.20
2018-08-04T21:22:17.496Z,47.10
2018-08-04T21:24:45.057Z,47.10
2018-08-04T21:27:12.567Z,47.10
2018-08-04T21:29:40.136Z,47.00
2018-08-04T21:32:07.661Z,47.50
2018-08-04T21:34:35.201Z,47.80
2018-08-04T21:37:02.720Z,47.50
2018-08-04T21:39:30.301Z,47.50
2018-08-04T21:41:59.265Z,47.70
2018-08-04T21:44:26.800Z,47.80
2018-08-04T21:46:54.352Z,48.10
2018-08-04T21:49:21.929Z,48.70
2018-08-04T21:51:50.555Z,48.80
2018-08-04T21:54:19.919Z,48.90
2018-08-04T21:56:46.696Z,49.00
2018-08-04T21:59:14.212Z,49.10
2018-08-04T22:01:47.215Z,49.10
2018-08-04T22:04:14.795Z,49.10
